createdAt,value
2023-12-11T00:02:11.732Z,10.65
2023-12-11T00:04:41.457Z,10.61
2023-12-11T00:07:11.674Z,10.65
2023-12-11T00:09:41.771Z,10.74
2023-12-11T00:12:12.068Z,10.68
2023-12-11T00:14:41.926Z,10.57
2023-12-11T00:17:13.058Z,10.52
2023-12-11T00:19:42.715Z,10.41
2023-12-11T00:22:12.725Z,10.49
2023-12-11T00:24:42.408Z,10.43
2023-12-11T00:27:14.879Z,10.36
2023-12-11T00:29:44.677Z,10.46
2023-12-11T00:32:15.192Z,10.56
2023-12-11T00:34:44.950Z,10.53
2023-12-11T00:37:14.993Z,10.62
2023-12-11T00:39:45.584Z,10.55
2023-12-11T00:42:16.217Z,10.53
2023-12-11T00:44:46.039Z,10.45
2023-12-11T00:47:15.996Z,10.32
2023-12-11T00:49:46.373Z,10.27
2023-12-11T00:52:16.896Z,10.24
2023-12-11T00:54:46.567Z,10.11
2023-12-11T00:57:17.662Z,10.07
2023-12-11T00:59:47.493Z,9.97
2023-12-11T01:02:20.328Z,9.90
2023-12-11T01:04:50.070Z,9.91
2023-12-11T01:07:19.850Z,9.96
2023-12-11T01:09:49.743Z,9.94
2023-12-11T01:12:20.057Z,9.93
2023-12-11T01:14:50.478Z,9.99
2023-12-11T01:17:37.671Z,10.08
2023-12-11T01:20:12.662Z,10.06
2023-12-11T01:22:42.692Z,10.10
2023-12-11T01:25:13.042Z,10.19
2023-12-11T01:27:42.758Z,10.29
2023-12-11T01:30:14.399Z,10.25
2023-12-11T01:32:44.429Z,10.17
2023-12-11T01:35:15.168Z,10.16
2023-12-11T01:37:46.962Z,10.20
2023-12-11T01:40:16.838Z,10.24
2023-12-11T01:42:46.627Z,10.25
2023-12-11T01:45:16.969Z,10.25
2023-12-11T01:47:46.874Z,10.15
2023-12-11T01:50:17.548Z,10.04
2023-12-11T01:52:48.310Z,9.98
2023-12-11T01:55:18.418Z,9.89
2023-12-11T01:57:50.228Z,9.92
2023-12-11T02:00:21.136Z,10.00
2023-12-11T02:02:52.430Z,10.01
2023-12-11T02:05:22.664Z,9.99
2023-12-11T02:07:52.470Z,9.90
2023-12-11T02:10:23.216Z,9.96
2023-12-11T02:12:53.353Z,9.99
2023-12-11T02:15:46.634Z,9.94
2023-12-11T02:18:20.190Z,9.86
2023-12-11T02:20:50.373Z,9.90
2023-12-11T02:24:10.086Z,9.82
2023-12-11T02:26:40.225Z,9.72
2023-12-11T02:29:10.281Z,9.72
2023-12-11T02:31:40.701Z,9.83
2023-12-11T02:34:13.173Z,9.84
2023-12-11T02:36:42.964Z,9.91
2023-12-11T02:39:13.465Z,9.95
2023-12-11T02:41:43.134Z,9.94
2023-12-11T02:44:12.947Z,10.01
2023-12-11T02:46:43.054Z,10.06
2023-12-11T02:49:12.857Z,9.98
2023-12-11T02:51:42.622Z,10.11
2023-12-11T02:54:12.366Z,10.25
2023-12-11T02:56:43.607Z,10.25
2023-12-11T02:59:13.397Z,10.18
2023-12-11T03:01:44.091Z,10.17
2023-12-11T03:04:14.045Z,10.14
2023-12-11T03:06:43.904Z,10.22
2023-12-11T03:09:13.768Z,10.10
2023-12-11T03:11:43.459Z,10.13
2023-12-11T03:14:13.353Z,10.12
2023-12-11T03:16:43.001Z,10.17
2023-12-11T03:19:12.853Z,10.17
2023-12-11T03:21:43.557Z,10.18
2023-12-11T03:24:13.625Z,10.11
2023-12-11T03:26:44.029Z,10.06
2023-12-11T03:29:14.134Z,9.97
2023-12-11T03:31:43.786Z,9.96
2023-12-11T03:34:13.580Z,10.02
2023-12-11T03:36:43.285Z,10.03
2023-12-11T03:39:13.109Z,10.07
2023-12-11T03:41:43.802Z,10.06
2023-12-11T03:44:14.167Z,10.11
2023-12-11T03:46:43.922Z,10.07
2023-12-11T03:49:18.772Z,10.15
2023-12-11T03:51:50.969Z,10.11
2023-12-11T03:54:20.837Z,10.16
2023-12-11T03:56:50.568Z,10.17
2023-12-11T03:59:20.317Z,10.30
2023-12-11T04:01:50.228Z,10.23
2023-12-11T04:04:20.231Z,10.25
2023-12-11T04:06:50.027Z,10.39
2023-12-11T04:09:20.058Z,10.34
2023-12-11T04:11:49.833Z,10.35
2023-12-11T04:14:19.606Z,10.33
2023-12-11T04:16:49.267Z,10.32
2023-12-11T04:19:19.148Z,10.41
2023-12-11T04:21:49.025Z,10.45
2023-12-11T04:24:18.894Z,10.43
2023-12-11T04:26:49.244Z,10.30
2023-12-11T04:29:19.654Z,10.24
2023-12-11T04:31:49.300Z,10.28
2023-12-11T04:34:19.153Z,10.22
2023-12-11T04:36:49.461Z,10.23
2023-12-11T04:39:19.443Z,10.35
2023-12-11T04:41:49.433Z,10.50
2023-12-11T04:46:52.312Z,10.52
2023-12-11T04:49:22.201Z,10.39
2023-12-11T04:51:52.512Z,10.08
2023-12-11T04:54:23.581Z,10.03
2023-12-11T04:56:53.492Z,9.86
2023-12-11T04:59:23.220Z,9.71
2023-12-11T05:01:53.149Z,9.69
2023-12-11T05:04:23.182Z,9.55
2023-12-11T05:06:53.025Z,9.57
2023-12-11T05:09:23.572Z,9.64
2023-12-11T05:11:53.321Z,9.49
2023-12-11T05:14:23.011Z,9.47
2023-12-11T05:16:53.334Z,9.35
2023-12-11T05:19:23.023Z,9.46
2023-12-11T05:21:56.098Z,9.36
2023-12-11T05:24:27.175Z,9.32
2023-12-11T05:26:59.666Z,9.44
2023-12-11T05:29:31.832Z,9.44
2023-12-11T05:32:01.544Z,9.35
2023-12-11T05:34:31.314Z,9.46
2023-12-11T05:37:00.976Z,9.39
2023-12-11T05:39:31.105Z,9.41
2023-12-11T05:42:00.865Z,9.40
2023-12-11T05:44:31.092Z,9.39
2023-12-11T05:47:01.017Z,9.47
2023-12-11T05:49:30.960Z,9.42
2023-12-11T05:52:01.152Z,9.60
2023-12-11T05:54:31.198Z,9.73
2023-12-11T05:57:01.213Z,9.87
2023-12-11T05:59:31.631Z,9.96
2023-12-11T06:02:01.486Z,10.04
2023-12-11T06:04:31.268Z,10.05
2023-12-11T06:07:01.773Z,10.08
2023-12-11T06:09:31.467Z,10.12
2023-12-11T06:12:01.104Z,10.15
2023-12-11T06:14:30.846Z,10.18
2023-12-11T06:17:00.958Z,10.18
2023-12-11T06:19:30.714Z,10.16
2023-12-11T06:22:00.827Z,10.19
2023-12-11T06:24:32.652Z,10.32
2023-12-11T06:27:03.334Z,10.35
2023-12-11T06:29:33.297Z,10.42
2023-12-11T06:32:03.633Z,10.38
2023-12-11T06:34:36.223Z,10.35
2023-12-11T06:37:06.949Z,10.36
2023-12-11T06:39:36.990Z,10.40
2023-12-11T06:42:07.439Z,10.26
2023-12-11T06:44:38.854Z,10.26
2023-12-11T06:47:11.060Z,10.24
2023-12-11T06:49:44.541Z,10.24
2023-12-11T06:52:18.230Z,10.25
2023-12-11T06:54:48.978Z,10.26
2023-12-11T06:57:19.353Z,10.31
2023-12-11T06:59:49.433Z,10.26
2023-12-11T07:02:19.393Z,10.32
2023-12-11T07:04:49.350Z,10.26
2023-12-11T07:07:19.177Z,10.27
2023-12-11T07:09:50.870Z,10.33
2023-12-11T07:12:22.183Z,10.38
2023-12-11T07:14:52.505Z,10.30
2023-12-11T07:17:22.199Z,10.26
2023-12-11T07:19:52.798Z,10.29
2023-12-11T07:22:24.298Z,10.29
2023-12-11T07:24:54.105Z,10.28
2023-12-11T07:27:23.809Z,10.20
2023-12-11T07:29:54.529Z,10.13
2023-12-11T07:32:24.377Z,10.04
2023-12-11T07:34:54.159Z,10.05
2023-12-11T07:37:24.275Z,9.97
2023-12-11T07:39:54.131Z,9.90
2023-12-11T07:42:25.072Z,9.91
2023-12-11T07:44:55.424Z,9.85
2023-12-11T07:47:26.166Z,9.83
2023-12-11T07:49:55.922Z,9.83
2023-12-11T07:52:26.302Z,9.85
2023-12-11T07:54:56.893Z,9.90
2023-12-11T07:57:31.359Z,10.06
2023-12-11T08:00:01.669Z,10.09
2023-12-11T08:02:31.973Z,10.09
2023-12-11T08:05:02.146Z,10.12
2023-12-11T08:07:33.157Z,10.15
2023-12-11T08:10:03.826Z,10.19
2023-12-11T08:15:10.387Z,10.34
2023-12-11T08:17:40.277Z,10.37
2023-12-11T08:20:13.893Z,10.36
2023-12-11T08:22:43.786Z,10.33
2023-12-11T08:25:15.901Z,10.26
2023-12-11T08:27:45.841Z,10.24
2023-12-11T08:30:15.883Z,10.17
2023-12-11T08:32:45.658Z,10.18
2023-12-11T08:35:15.580Z,10.08
2023-12-11T08:37:46.660Z,10.13
2023-12-11T08:40:18.793Z,10.12
2023-12-11T08:42:49.402Z,10.11
2023-12-11T08:45:19.249Z,10.13
2023-12-11T08:47:48.969Z,10.23
2023-12-11T08:50:19.825Z,10.37
2023-12-11T08:52:51.205Z,10.46
2023-12-11T08:55:21.631Z,10.53
2023-12-11T08:57:51.375Z,10.55
2023-12-11T09:00:22.623Z,10.61
2023-12-11T09:02:53.955Z,10.61
2023-12-11T09:05:23.828Z,10.71
2023-12-11T09:07:53.513Z,10.71
2023-12-11T09:10:24.182Z,10.70
2023-12-11T09:12:56.396Z,10.70
2023-12-11T09:15:26.345Z,10.79
2023-12-11T09:17:56.110Z,10.72
2023-12-11T09:20:26.031Z,10.77
2023-12-11T09:22:56.229Z,10.82
2023-12-11T09:25:26.133Z,10.86
2023-12-11T09:27:56.041Z,10.86
2023-12-11T09:30:26.000Z,10.94
2023-12-11T09:32:56.365Z,10.89
2023-12-11T09:35:27.116Z,10.90
2023-12-11T09:37:57.066Z,10.82
2023-12-11T09:40:27.191Z,10.51
2023-12-11T09:42:57.562Z,10.39
2023-12-11T09:45:28.737Z,10.32
2023-12-11T09:48:08.737Z,10.27
2023-12-11T09:50:45.619Z,10.38
2023-12-11T09:53:17.743Z,10.37
2023-12-11T09:55:49.941Z,10.38
2023-12-11T09:58:24.386Z,10.45
2023-12-11T10:01:03.005Z,10.51
2023-12-11T10:03:34.577Z,10.68
2023-12-11T10:06:08.399Z,10.73
2023-12-11T10:08:57.958Z,10.73
2023-12-11T10:11:32.207Z,10.79
2023-12-11T10:14:17.383Z,10.75
2023-12-11T10:16:47.902Z,10.67
2023-12-11T10:19:18.214Z,10.76
2023-12-11T10:21:48.574Z,10.69
2023-12-11T10:24:19.298Z,10.85
2023-12-11T10:26:59.466Z,10.88
2023-12-11T10:29:33.523Z,10.97
2023-12-11T10:32:06.926Z,11.03
2023-12-11T10:34:53.874Z,10.98
2023-12-11T10:37:34.401Z,11.04
2023-12-11T10:40:08.280Z,10.99
2023-12-11T10:42:38.275Z,10.75
2023-12-11T10:45:11.480Z,10.73
2023-12-11T10:47:45.940Z,10.48
2023-12-11T10:50:17.765Z,10.18
2023-12-11T10:52:50.541Z,10.11
2023-12-11T10:55:22.410Z,10.05
2023-12-11T10:57:56.111Z,9.96
2023-12-11T11:00:26.180Z,9.93
2023-12-11T11:03:01.095Z,9.90
2023-12-11T11:05:34.231Z,9.88
2023-12-11T11:08:54.299Z,9.91
2023-12-11T11:11:54.319Z,9.96
2023-12-11T11:14:48.335Z,9.88
2023-12-11T11:17:21.166Z,9.94
2023-12-11T11:20:23.926Z,9.98
2023-12-11T11:22:54.390Z,10.05
2023-12-11T11:25:36.486Z,10.03
2023-12-11T11:28:06.422Z,10.07
2023-12-11T11:30:53.276Z,10.20
2023-12-11T11:33:24.927Z,10.17
2023-12-11T11:35:56.779Z,10.13
2023-12-11T11:39:08.571Z,10.25
2023-12-11T11:41:38.447Z,10.36
2023-12-11T11:44:12.403Z,10.51
2023-12-11T11:47:20.774Z,10.55
2023-12-11T11:49:50.875Z,10.57
2023-12-11T11:52:32.426Z,10.42
2023-12-11T11:55:28.916Z,10.45
2023-12-11T11:57:59.270Z,10.65
2023-12-11T12:03:13.166Z,10.99
2023-12-11T12:05:59.004Z,11.06
2023-12-11T12:08:28.646Z,10.91
2023-12-11T12:11:02.075Z,10.93
2023-12-11T12:13:39.161Z,10.94
2023-12-11T12:16:09.666Z,10.88
2023-12-11T12:18:50.503Z,10.83
2023-12-11T12:21:20.081Z,10.66
2023-12-11T12:24:06.794Z,10.50
2023-12-11T12:26:39.092Z,10.41
2023-12-11T12:29:13.260Z,10.26
2023-12-11T12:31:43.912Z,10.27
2023-12-11T12:34:19.487Z,10.32
2023-12-11T12:36:50.045Z,10.37
2023-12-11T12:39:23.415Z,10.39
2023-12-11T12:41:55.469Z,10.37
2023-12-11T12:44:25.590Z,10.30
2023-12-11T12:47:01.427Z,10.31
2023-12-11T12:49:37.136Z,10.38
2023-12-11T12:52:07.551Z,10.29
2023-12-11T12:54:57.923Z,10.25
2023-12-11T12:57:27.789Z,10.31
2023-12-11T12:59:59.377Z,10.46
2023-12-11T13:02:30.471Z,10.65
2023-12-11T13:05:00.398Z,10.75
2023-12-11T13:07:31.346Z,10.84
2023-12-11T13:10:16.170Z,10.87
2023-12-11T13:12:45.707Z,10.86
2023-12-11T13:15:15.496Z,10.99
2023-12-11T13:17:56.617Z,10.95
2023-12-11T13:20:26.474Z,11.03
2023-12-11T13:22:57.407Z,11.08
2023-12-11T13:25:27.689Z,11.03
2023-12-11T13:27:57.417Z,10.73
2023-12-11T13:30:28.106Z,10.71
2023-12-11T13:32:57.557Z,10.76
2023-12-11T13:35:27.177Z,10.81
2023-12-11T13:37:56.758Z,10.75
2023-12-11T13:40:26.497Z,10.65
2023-12-11T13:42:56.811Z,10.57
2023-12-11T13:45:26.486Z,10.56
2023-12-11T13:47:56.123Z,10.58
2023-12-11T13:50:26.059Z,10.73
2023-12-11T13:52:55.736Z,10.76
2023-12-11T13:55:25.428Z,10.84
2023-12-11T13:57:55.693Z,10.76
2023-12-11T14:00:25.371Z,10.72
2023-12-11T14:03:01.474Z,10.59
2023-12-11T14:05:36.184Z,10.63
2023-12-11T14:08:07.543Z,10.66
2023-12-11T14:10:38.451Z,10.62
2023-12-11T14:13:16.288Z,10.69
2023-12-11T14:15:48.698Z,10.57
2023-12-11T14:18:18.529Z,10.45
2023-12-11T14:20:48.700Z,10.42
2023-12-11T14:23:18.918Z,10.45
2023-12-11T14:25:50.608Z,10.42
2023-12-11T14:28:20.661Z,10.50
2023-12-11T14:30:57.043Z,10.55
2023-12-11T14:33:26.848Z,10.53
2023-12-11T14:35:56.641Z,10.44
2023-12-11T14:38:26.620Z,10.43
2023-12-11T14:40:56.353Z,10.38
2023-12-11T14:43:27.954Z,10.34
2023-12-11T14:45:58.762Z,10.22
2023-12-11T14:48:28.549Z,10.09
2023-12-11T14:50:58.449Z,10.02
2023-12-11T14:53:28.439Z,9.90
2023-12-11T14:55:58.572Z,9.84
2023-12-11T14:58:35.418Z,9.81
2023-12-11T15:01:07.044Z,9.74
2023-12-11T15:03:37.747Z,9.74
2023-12-11T15:06:10.338Z,9.63
2023-12-11T15:08:43.903Z,9.55
2023-12-11T15:11:14.802Z,9.59
2023-12-11T15:13:46.005Z,9.49
2023-12-11T15:16:16.814Z,9.40
2023-12-11T15:18:48.004Z,9.37
2023-12-11T15:21:21.340Z,9.28
2023-12-11T15:23:51.003Z,9.28
2023-12-11T15:26:24.041Z,9.26
2023-12-11T15:28:54.075Z,9.36
2023-12-11T15:31:27.983Z,9.26
2023-12-11T15:33:57.693Z,9.17
2023-12-11T15:36:27.742Z,9.16
2023-12-11T15:38:57.828Z,9.10
2023-12-11T15:41:27.683Z,9.11
2023-12-11T15:43:58.220Z,9.02
2023-12-11T15:46:28.221Z,9.06
2023-12-11T15:48:58.361Z,8.96
2023-12-11T15:51:31.326Z,8.81
2023-12-11T15:54:01.140Z,8.76
2023-12-11T15:56:35.510Z,8.67
2023-12-11T15:59:05.484Z,8.59
2023-12-11T16:01:35.300Z,8.70
2023-12-11T16:04:05.491Z,8.82
2023-12-11T16:06:37.814Z,8.92
2023-12-11T16:09:09.745Z,9.09
2023-12-11T16:11:42.141Z,9.14
2023-12-11T16:14:11.849Z,9.16
2023-12-11T16:19:15.740Z,9.17
2023-12-11T16:21:45.524Z,9.15
2023-12-11T16:24:15.377Z,9.13
2023-12-11T16:26:44.933Z,9.22
2023-12-11T16:29:14.687Z,9.19
2023-12-11T16:31:44.571Z,9.15
2023-12-11T16:34:14.826Z,9.04
2023-12-11T16:36:44.716Z,8.99
2023-12-11T16:39:14.412Z,8.92
2023-12-11T16:41:44.353Z,8.84
2023-12-11T16:44:17.056Z,8.79
2023-12-11T16:46:47.896Z,8.83
2023-12-11T16:49:18.126Z,8.76
2023-12-11T16:51:48.000Z,8.78
2023-12-11T16:54:17.617Z,8.76
2023-12-11T16:56:49.481Z,8.81
2023-12-11T16:59:19.688Z,8.88
2023-12-11T17:01:50.754Z,9.00
2023-12-11T17:04:20.687Z,9.11
2023-12-11T17:06:50.373Z,9.09
2023-12-11T17:09:20.685Z,9.09
2023-12-11T17:11:50.429Z,9.13
2023-12-11T17:14:21.080Z,9.28
2023-12-11T17:16:50.738Z,9.17
2023-12-11T17:19:21.166Z,9.17
2023-12-11T17:21:50.707Z,9.24
2023-12-11T17:24:20.778Z,9.24
2023-12-11T17:26:51.158Z,9.22
2023-12-11T17:29:21.198Z,9.32
2023-12-11T17:31:50.644Z,9.35
2023-12-11T17:34:20.164Z,9.39
2023-12-11T17:36:49.749Z,9.54
2023-12-11T17:39:19.488Z,9.56
2023-12-11T17:41:49.275Z,9.58
2023-12-11T17:44:18.873Z,9.67
2023-12-11T17:46:48.561Z,9.76
2023-12-11T17:49:18.218Z,9.80
2023-12-11T17:51:48.916Z,9.69
2023-12-11T17:54:18.976Z,9.72
2023-12-11T17:56:49.727Z,9.77
2023-12-11T17:59:19.802Z,9.72
2023-12-11T18:01:49.328Z,9.62
2023-12-11T18:04:19.733Z,9.62
2023-12-11T18:06:55.191Z,9.61
2023-12-11T18:09:25.152Z,9.64
2023-12-11T18:11:55.173Z,9.64
2023-12-11T18:14:28.071Z,9.73
2023-12-11T18:16:57.576Z,9.75
2023-12-11T18:19:27.771Z,9.74
2023-12-11T18:22:00.122Z,9.71
2023-12-11T18:24:30.204Z,9.73
2023-12-11T18:27:00.199Z,9.76
2023-12-11T18:29:29.875Z,9.73
2023-12-11T18:31:59.761Z,9.72
2023-12-11T18:34:39.713Z,9.69
2023-12-11T18:37:17.033Z,9.74
2023-12-11T18:39:47.536Z,9.85
2023-12-11T18:42:17.092Z,9.81
2023-12-11T18:44:47.107Z,9.80
2023-12-11T18:47:16.765Z,9.79
2023-12-11T18:49:47.331Z,9.74
2023-12-11T18:52:20.463Z,9.78
2023-12-11T18:54:50.121Z,9.67
2023-12-11T18:57:21.385Z,9.73
2023-12-11T18:59:50.829Z,9.69
2023-12-11T19:02:21.192Z,9.67
2023-12-11T19:04:55.310Z,9.68
2023-12-11T19:07:26.345Z,9.69
2023-12-11T19:09:55.964Z,9.65
2023-12-11T19:12:25.727Z,9.56
2023-12-11T19:14:58.274Z,9.53
2023-12-11T19:17:28.956Z,9.46
2023-12-11T19:19:58.729Z,9.56
2023-12-11T19:22:28.931Z,9.55
2023-12-11T19:24:58.913Z,9.64
2023-12-11T19:27:30.173Z,9.67
2023-12-11T19:29:59.858Z,9.77
2023-12-11T19:32:30.336Z,9.78
2023-12-11T19:35:00.874Z,9.74
2023-12-11T19:37:41.460Z,9.90
2023-12-11T19:40:21.859Z,9.88
2023-12-11T19:43:03.535Z,9.89
2023-12-11T19:45:49.277Z,10.02
2023-12-11T19:48:35.292Z,10.04
2023-12-11T19:51:24.125Z,10.00
2023-12-11T19:54:05.712Z,10.00
2023-12-11T19:56:52.672Z,9.99
2023-12-11T19:59:35.769Z,9.82
2023-12-11T20:02:09.654Z,9.81
2023-12-11T20:04:44.402Z,9.90
2023-12-11T20:07:16.154Z,9.89
2023-12-11T20:09:47.066Z,9.88
2023-12-11T20:12:16.789Z,9.92
2023-12-11T20:14:46.861Z,9.92
2023-12-11T20:17:18.660Z,9.92
2023-12-11T20:19:49.414Z,9.97
2023-12-11T20:22:19.698Z,9.90
2023-12-11T20:24:49.897Z,9.80
2023-12-11T20:27:19.456Z,9.87
2023-12-11T20:29:48.934Z,9.83
2023-12-11T20:32:19.973Z,9.79
2023-12-11T20:34:49.686Z,9.78
2023-12-11T20:37:19.370Z,9.83
2023-12-11T20:39:49.047Z,9.85
2023-12-11T20:42:23.355Z,9.72
2023-12-11T20:44:57.604Z,9.78
2023-12-11T20:47:28.616Z,9.71
2023-12-11T20:49:58.481Z,9.67
2023-12-11T20:52:28.095Z,9.60
2023-12-11T20:55:00.032Z,9.62
2023-12-11T20:57:32.969Z,9.55
2023-12-11T21:00:14.234Z,9.68
2023-12-11T21:02:46.280Z,9.68
2023-12-11T21:05:15.996Z,9.76
2023-12-11T21:07:46.985Z,9.77
2023-12-11T21:10:17.411Z,9.81
2023-12-11T21:12:47.200Z,9.74
2023-12-11T21:15:17.472Z,9.74
2023-12-11T21:17:47.322Z,9.68
2023-12-11T21:20:17.316Z,9.72
2023-12-11T21:22:46.980Z,9.71
2023-12-11T21:25:16.810Z,9.69
2023-12-11T21:27:48.323Z,9.77
2023-12-11T21:30:23.474Z,9.76
2023-12-11T21:32:54.355Z,9.71
2023-12-11T21:35:23.910Z,9.59
2023-12-11T21:37:54.006Z,9.45
2023-12-11T21:40:23.542Z,9.34
2023-12-11T21:42:55.091Z,9.34
2023-12-11T21:45:24.573Z,9.30
2023-12-11T21:47:54.478Z,9.24
2023-12-11T21:50:24.285Z,9.20
2023-12-11T21:52:53.826Z,9.14
2023-12-11T21:55:23.433Z,9.21
2023-12-11T21:57:53.459Z,9.19
2023-12-11T22:00:23.007Z,9.16
2023-12-11T22:02:52.395Z,9.09
2023-12-11T22:05:21.846Z,9.14
2023-12-11T22:07:51.614Z,9.01
2023-12-11T22:10:21.561Z,8.95
2023-12-11T22:12:51.213Z,8.93
2023-12-11T22:15:21.218Z,8.85
2023-12-11T22:17:56.739Z,8.95
2023-12-11T22:20:28.332Z,8.91
2023-12-11T22:22:57.970Z,8.96
2023-12-11T22:25:27.662Z,8.91
2023-12-11T22:27:57.352Z,8.88
2023-12-11T22:30:28.594Z,8.83
2023-12-11T22:32:58.386Z,8.82
2023-12-11T22:35:27.963Z,8.80
2023-12-11T22:37:57.585Z,8.73
2023-12-11T22:40:27.628Z,8.66
2023-12-11T22:42:57.693Z,8.63
2023-12-11T22:45:27.443Z,8.56
2023-12-11T22:47:57.048Z,8.53
2023-12-11T22:50:28.640Z,8.48
2023-12-11T22:52:59.566Z,8.58
2023-12-11T22:55:29.151Z,8.62
2023-12-11T22:58:06.636Z,8.63
2023-12-11T23:00:43.542Z,8.61
2023-12-11T23:03:13.157Z,8.62
2023-12-11T23:05:43.065Z,8.65
2023-12-11T23:08:12.655Z,8.63
2023-12-11T23:10:42.425Z,8.68
2023-12-11T23:13:12.465Z,8.68
2023-12-11T23:18:15.129Z,8.66
2023-12-11T23:20:45.731Z,8.66
2023-12-11T23:23:16.076Z,8.80
2023-12-11T23:25:54.192Z,8.78
2023-12-11T23:28:28.572Z,8.83
2023-12-11T23:30:58.141Z,8.78
2023-12-11T23:33:27.670Z,8.75
2023-12-11T23:35:57.743Z,8.71
2023-12-11T23:38:27.111Z,8.71
2023-12-11T23:40:57.074Z,8.68
2023-12-11T23:43:27.735Z,8.79
2023-12-11T23:45:57.602Z,8.72
2023-12-11T23:48:27.151Z,8.68
2023-12-11T23:50:56.486Z,8.64
2023-12-11T23:53:25.941Z,8.59
2023-12-11T23:55:55.827Z,8.52
2023-12-11T23:58:25.274Z,8.51
